sensor_id;sensor_type;location;lat;lon;timestamp;P1;durP1;ratioP1;P2;durP2;ratioP2
15944;SDS011;30172;48.832;8.732;2022-12-18T00:00:46;34.93;;;17.83;;
15944;SDS011;30172;48.832;8.732;2022-12-18T00:03:12;29.13;;;16.63;;
15944;SDS011;30172;48.832;8.732;2022-12-18T00:05:37;27.07;;;16.40;;
15944;SDS011;30172;48.832;8.732;2022-12-18T00:08:11;30.70;;;17.17;;
15944;SDS011;30172;48.832;8.732;2022-12-18T00:10:36;33.27;;;16.83;;
15944;SDS011;30172;48.832;8.732;2022-12-18T00:13:01;31.23;;;16.07;;
15944;SDS011;30172;48.832;8.732;2022-12-18T00:15:27;27.27;;;17.23;;
15944;SDS011;30172;48.832;8.732;2022-12-18T00:17:52;29.20;;;16.10;;
15944;SDS011;30172;48.832;8.732;2022-12-18T00:20:17;31.40;;;16.43;;
15944;SDS011;30172;48.832;8.732;2022-12-18T00:22:48;32.57;;;18.20;;
15944;SDS011;30172;48.832;8.732;2022-12-18T00:25:13;32.33;;;17.87;;
15944;SDS011;30172;48.832;8.732;2022-12-18T00:27:39;27.70;;;16.67;;
15944;SDS011;30172;48.832;8.732;2022-12-18T00:30:04;34.77;;;17.70;;
15944;SDS011;30172;48.832;8.732;2022-12-18T00:32:30;34.83;;;18.20;;
15944;SDS011;30172;48.832;8.732;2022-12-18T00:34:55;37.03;;;19.20;;
15944;SDS011;30172;48.832;8.732;2022-12-18T00:37:20;34.40;;;18.73;;
15944;SDS011;30172;48.832;8.732;2022-12-18T00:39:47;35.37;;;18.47;;
15944;SDS011;30172;48.832;8.732;2022-12-18T00:42:13;30.57;;;18.00;;
15944;SDS011;30172;48.832;8.732;2022-12-18T00:44:56;31.77;;;17.70;;
15944;SDS011;30172;48.832;8.732;2022-12-18T00:47:22;35.83;;;18.47;;
15944;SDS011;30172;48.832;8.732;2022-12-18T00:49:47;35.30;;;17.40;;
15944;SDS011;30172;48.832;8.732;2022-12-18T00:52:12;34.17;;;18.47;;
15944;SDS011;30172;48.832;8.732;2022-12-18T00:54:38;30.33;;;16.20;;
15944;SDS011;30172;48.832;8.732;2022-12-18T00:57:03;30.10;;;16.87;;
15944;SDS011;30172;48.832;8.732;2022-12-18T00:59:28;29.57;;;16.87;;
15944;SDS011;30172;48.832;8.732;2022-12-18T01:01:55;26.93;;;17.10;;
15944;SDS011;30172;48.832;8.732;2022-12-18T01:04:20;34.77;;;17.17;;
15944;SDS011;30172;48.832;8.732;2022-12-18T01:06:45;32.13;;;18.53;;
15944;SDS011;30172;48.832;8.732;2022-12-18T01:09:11;29.20;;;17.63;;
15944;SDS011;30172;48.832;8.732;2022-12-18T01:11:36;34.23;;;17.90;;
15944;SDS011;30172;48.832;8.732;2022-12-18T01:14:01;34.93;;;17.27;;
15944;SDS011;30172;48.832;8.732;2022-12-18T01:16:27;35.47;;;18.80;;
15944;SDS011;30172;48.832;8.732;2022-12-18T01:18:52;33.93;;;17.93;;
15944;SDS011;30172;48.832;8.732;2022-12-18T01:21:19;30.50;;;16.70;;
15944;SDS011;30172;48.832;8.732;2022-12-18T01:23:44;29.47;;;16.03;;
15944;SDS011;30172;48.832;8.732;2022-12-18T01:26:12;32.03;;;15.80;;
15944;SDS011;30172;48.832;8.732;2022-12-18T01:28:40;28.53;;;17.53;;
15944;SDS011;30172;48.832;8.732;2022-12-18T01:31:48;30.20;;;16.33;;
15944;SDS011;30172;48.832;8.732;2022-12-18T01:33:57;27.83;;;16.50;;
15944;SDS011;30172;48.832;8.732;2022-12-18T01:38:52;32.43;;;18.30;;
15944;SDS011;30172;48.832;8.732;2022-12-18T01:41:19;32.40;;;16.33;;
15944;SDS011;30172;48.832;8.732;2022-12-18T01:43:55;33.60;;;16.73;;
15944;SDS011;30172;48.832;8.732;2022-12-18T01:46:23;29.10;;;16.13;;
15944;SDS011;30172;48.832;8.732;2022-12-18T01:48:53;32.27;;;16.10;;
15944;SDS011;30172;48.832;8.732;2022-12-18T01:51:20;28.97;;;16.13;;
15944;SDS011;30172;48.832;8.732;2022-12-18T01:53:45;33.80;;;17.33;;
15944;SDS011;30172;48.832;8.732;2022-12-18T01:56:16;32.07;;;16.93;;
15944;SDS011;30172;48.832;8.732;2022-12-18T01:58:59;30.03;;;15.87;;
15944;SDS011;30172;48.832;8.732;2022-12-18T02:01:28;29.40;;;15.87;;
15944;SDS011;30172;48.832;8.732;2022-12-18T02:03:54;28.57;;;15.67;;
15944;SDS011;30172;48.832;8.732;2022-12-18T02:06:29;30.53;;;15.77;;
15944;SDS011;30172;48.832;8.732;2022-12-18T02:09:02;28.93;;;14.93;;
15944;SDS011;30172;48.832;8.732;2022-12-18T02:14:29;28.53;;;15.20;;
15944;SDS011;30172;48.832;8.732;2022-12-18T02:17:07;32.13;;;15.40;;
15944;SDS011;30172;48.832;8.732;2022-12-18T02:19:43;27.23;;;15.03;;
15944;SDS011;30172;48.832;8.732;2022-12-18T02:22:41;27.83;;;14.90;;
15944;SDS011;30172;48.832;8.732;2022-12-18T02:25:23;30.37;;;15.07;;
15944;SDS011;30172;48.832;8.732;2022-12-18T02:27:51;27.27;;;15.17;;
15944;SDS011;30172;48.832;8.732;2022-12-18T02:30:17;33.30;;;15.60;;
15944;SDS011;30172;48.832;8.732;2022-12-18T02:32:45;29.80;;;15.77;;
15944;SDS011;30172;48.832;8.732;2022-12-18T02:35:15;33.93;;;15.83;;
15944;SDS011;30172;48.832;8.732;2022-12-18T02:37:42;26.60;;;16.30;;
15944;SDS011;30172;48.832;8.732;2022-12-18T02:40:09;29.40;;;15.03;;
15944;SDS011;30172;48.832;8.732;2022-12-18T02:42:35;28.47;;;16.33;;
15944;SDS011;30172;48.832;8.732;2022-12-18T02:45:01;31.17;;;17.13;;
15944;SDS011;30172;48.832;8.732;2022-12-18T02:47:28;33.47;;;16.07;;
15944;SDS011;30172;48.832;8.732;2022-12-18T02:50:02;31.67;;;15.50;;
15944;SDS011;30172;48.832;8.732;2022-12-18T03:02:48;35.00;;;17.47;;
15944;SDS011;30172;48.832;8.732;2022-12-18T03:05:36;29.87;;;14.87;;
15944;SDS011;30172;48.832;8.732;2022-12-18T03:08:08;30.20;;;17.40;;
15944;SDS011;30172;48.832;8.732;2022-12-18T03:10:39;31.63;;;16.67;;
15944;SDS011;30172;48.832;8.732;2022-12-18T03:13:09;26.07;;;15.07;;
15944;SDS011;30172;48.832;8.732;2022-12-18T03:15:48;31.03;;;16.77;;
15944;SDS011;30172;48.832;8.732;2022-12-18T03:18:17;27.93;;;15.80;;
15944;SDS011;30172;48.832;8.732;2022-12-18T03:20:44;31.47;;;16.57;;
15944;SDS011;30172;48.832;8.732;2022-12-18T03:23:11;33.97;;;16.60;;
15944;SDS011;30172;48.832;8.732;2022-12-18T03:25:39;35.97;;;16.80;;
15944;SDS011;30172;48.832;8.732;2022-12-18T03:28:09;31.03;;;17.53;;
15944;SDS011;30172;48.832;8.732;2022-12-18T03:30:38;28.13;;;16.67;;
15944;SDS011;30172;48.832;8.732;2022-12-18T03:33:08;33.03;;;17.00;;
15944;SDS011;30172;48.832;8.732;2022-12-18T03:35:37;32.87;;;17.03;;
15944;SDS011;30172;48.832;8.732;2022-12-18T03:38:05;31.87;;;17.63;;
15944;SDS011;30172;48.832;8.732;2022-12-18T03:40:35;32.60;;;17.90;;
15944;SDS011;30172;48.832;8.732;2022-12-18T03:43:18;34.57;;;18.87;;
15944;SDS011;30172;48.832;8.732;2022-12-18T03:46:00;29.40;;;16.83;;
15944;SDS011;30172;48.832;8.732;2022-12-18T03:48:33;31.23;;;16.90;;
15944;SDS011;30172;48.832;8.732;2022-12-18T03:51:24;29.63;;;16.37;;
15944;SDS011;30172;48.832;8.732;2022-12-18T03:53:59;27.27;;;15.63;;
15944;SDS011;30172;48.832;8.732;2022-12-18T03:56:26;31.53;;;16.83;;
15944;SDS011;30172;48.832;8.732;2022-12-18T03:58:54;33.93;;;17.70;;
15944;SDS011;30172;48.832;8.732;2022-12-18T04:01:20;30.67;;;17.23;;
15944;SDS011;30172;48.832;8.732;2022-12-18T04:03:49;33.20;;;16.77;;
15944;SDS011;30172;48.832;8.732;2022-12-18T04:06:14;30.23;;;17.00;;
15944;SDS011;30172;48.832;8.732;2022-12-18T04:08:40;32.13;;;17.43;;
15944;SDS011;30172;48.832;8.732;2022-12-18T04:11:06;28.60;;;16.13;;
15944;SDS011;30172;48.832;8.732;2022-12-18T04:13:35;29.07;;;17.27;;
15944;SDS011;30172;48.832;8.732;2022-12-18T04:16:02;27.43;;;14.67;;
15944;SDS011;30172;48.832;8.732;2022-12-18T04:18:27;29.73;;;16.07;;
15944;SDS011;30172;48.832;8.732;2022-12-18T04:20:53;28.30;;;15.57;;
15944;SDS011;30172;48.832;8.732;2022-12-18T04:23:18;27.37;;;15.47;;
15944;SDS011;30172;48.832;8.732;2022-12-18T04:25:43;28.97;;;15.77;;
15944;SDS011;30172;48.832;8.732;2022-12-18T04:28:08;29.17;;;15.83;;
15944;SDS011;30172;48.832;8.732;2022-12-18T04:30:34;30.03;;;16.33;;
15944;SDS011;30172;48.832;8.732;2022-12-18T04:32:59;28.27;;;15.10;;
15944;SDS011;30172;48.832;8.732;2022-12-18T04:35:24;27.30;;;15.73;;
15944;SDS011;30172;48.832;8.732;2022-12-18T04:37:50;25.03;;;15.60;;
15944;SDS011;30172;48.832;8.732;2022-12-18T04:40:15;29.47;;;16.07;;
15944;SDS011;30172;48.832;8.732;2022-12-18T04:42:40;31.20;;;15.13;;
15944;SDS011;30172;48.832;8.732;2022-12-18T04:45:06;24.03;;;15.10;;
15944;SDS011;30172;48.832;8.732;2022-12-18T04:47:32;32.20;;;15.80;;
15944;SDS011;30172;48.832;8.732;2022-12-18T04:49:57;25.73;;;15.63;;
15944;SDS011;30172;48.832;8.732;2022-12-18T04:52:22;28.13;;;15.53;;
15944;SDS011;30172;48.832;8.732;2022-12-18T04:54:48;24.37;;;13.60;;
15944;SDS011;30172;48.832;8.732;2022-12-18T04:57:13;26.67;;;14.67;;
15944;SDS011;30172;48.832;8.732;2022-12-18T04:59:38;25.47;;;14.77;;
15944;SDS011;30172;48.832;8.732;2022-12-18T05:02:04;23.03;;;13.67;;
15944;SDS011;30172;48.832;8.732;2022-12-18T05:04:29;26.50;;;14.17;;
15944;SDS011;30172;48.832;8.732;2022-12-18T05:06:54;29.53;;;13.80;;
15944;SDS011;30172;48.832;8.732;2022-12-18T05:09:19;24.83;;;13.83;;
15944;SDS011;30172;48.832;8.732;2022-12-18T05:11:45;28.00;;;14.77;;
15944;SDS011;30172;48.832;8.732;2022-12-18T05:14:11;34.23;;;14.93;;
15944;SDS011;30172;48.832;8.732;2022-12-18T05:16:36;24.70;;;14.13;;
15944;SDS011;30172;48.832;8.732;2022-12-18T05:19:02;28.47;;;14.23;;
15944;SDS011;30172;48.832;8.732;2022-12-18T05:21:27;30.47;;;14.90;;
15944;SDS011;30172;48.832;8.732;2022-12-18T05:23:52;24.33;;;13.70;;
15944;SDS011;30172;48.832;8.732;2022-12-18T05:26:18;22.43;;;13.00;;
15944;SDS011;30172;48.832;8.732;2022-12-18T05:28:43;24.37;;;13.83;;
15944;SDS011;30172;48.832;8.732;2022-12-18T05:31:09;26.77;;;13.03;;
15944;SDS011;30172;48.832;8.732;2022-12-18T05:33:34;22.40;;;13.43;;
15944;SDS011;30172;48.832;8.732;2022-12-18T05:36:04;25.93;;;13.30;;
15944;SDS011;30172;48.832;8.732;2022-12-18T05:38:32;25.60;;;13.33;;
15944;SDS011;30172;48.832;8.732;2022-12-18T05:40:59;26.30;;;14.20;;
15944;SDS011;30172;48.832;8.732;2022-12-18T05:43:25;22.80;;;12.87;;
15944;SDS011;30172;48.832;8.732;2022-12-18T05:45:51;25.60;;;13.20;;
15944;SDS011;30172;48.832;8.732;2022-12-18T05:48:17;24.40;;;13.70;;
15944;SDS011;30172;48.832;8.732;2022-12-18T05:50:43;28.03;;;13.73;;
15944;SDS011;30172;48.832;8.732;2022-12-18T05:53:12;23.23;;;13.50;;
15944;SDS011;30172;48.832;8.732;2022-12-18T05:55:38;24.50;;;15.03;;
15944;SDS011;30172;48.832;8.732;2022-12-18T05:58:05;22.87;;;13.37;;
15944;SDS011;30172;48.832;8.732;2022-12-18T06:00:32;26.63;;;14.03;;
15944;SDS011;30172;48.832;8.732;2022-12-18T06:02:58;30.13;;;14.30;;
15944;SDS011;30172;48.832;8.732;2022-12-18T06:05:24;25.77;;;13.37;;
15944;SDS011;30172;48.832;8.732;2022-12-18T06:07:50;24.00;;;12.70;;
15944;SDS011;30172;48.832;8.732;2022-12-18T06:10:15;26.97;;;13.33;;
15944;SDS011;30172;48.832;8.732;2022-12-18T06:12:40;28.50;;;14.20;;
15944;SDS011;30172;48.832;8.732;2022-12-18T06:15:06;27.33;;;13.33;;
15944;SDS011;30172;48.832;8.732;2022-12-18T06:17:32;31.03;;;13.40;;
15944;SDS011;30172;48.832;8.732;2022-12-18T06:19:58;27.60;;;13.37;;
15944;SDS011;30172;48.832;8.732;2022-12-18T06:22:24;32.67;;;15.57;;
15944;SDS011;30172;48.832;8.732;2022-12-18T06:24:49;37.10;;;15.70;;
15944;SDS011;30172;48.832;8.732;2022-12-18T06:27:14;38.50;;;15.80;;
15944;SDS011;30172;48.832;8.732;2022-12-18T06:29:40;34.87;;;16.40;;
15944;SDS011;30172;48.832;8.732;2022-12-18T06:32:05;35.23;;;15.33;;
15944;SDS011;30172;48.832;8.732;2022-12-18T06:34:31;36.87;;;15.53;;
15944;SDS011;30172;48.832;8.732;2022-12-18T06:36:57;34.73;;;15.67;;
15944;SDS011;30172;48.832;8.732;2022-12-18T06:39:22;39.47;;;15.37;;
15944;SDS011;30172;48.832;8.732;2022-12-18T06:41:47;41.63;;;16.63;;
15944;SDS011;30172;48.832;8.732;2022-12-18T06:44:13;37.03;;;15.20;;
15944;SDS011;30172;48.832;8.732;2022-12-18T06:46:38;31.27;;;14.53;;
15944;SDS011;30172;48.832;8.732;2022-12-18T06:49:03;39.70;;;17.23;;
15944;SDS011;30172;48.832;8.732;2022-12-18T06:51:29;41.47;;;17.13;;
15944;SDS011;30172;48.832;8.732;2022-12-18T06:53:54;39.53;;;17.37;;
15944;SDS011;30172;48.832;8.732;2022-12-18T06:56:19;39.27;;;14.57;;
15944;SDS011;30172;48.832;8.732;2022-12-18T06:58:45;39.17;;;15.83;;
15944;SDS011;30172;48.832;8.732;2022-12-18T07:01:10;39.80;;;17.73;;
15944;SDS011;30172;48.832;8.732;2022-12-18T07:03:37;43.60;;;18.10;;
15944;SDS011;30172;48.832;8.732;2022-12-18T07:06:03;35.53;;;17.23;;
15944;SDS011;30172;48.832;8.732;2022-12-18T07:08:29;45.87;;;18.77;;
15944;SDS011;30172;48.832;8.732;2022-12-18T07:10:55;41.07;;;18.03;;
15944;SDS011;30172;48.832;8.732;2022-12-18T07:13:20;34.13;;;16.93;;
15944;SDS011;30172;48.832;8.732;2022-12-18T07:15:46;33.97;;;16.30;;
15944;SDS011;30172;48.832;8.732;2022-12-18T07:18:11;38.63;;;17.57;;
15944;SDS011;30172;48.832;8.732;2022-12-18T07:20:36;48.40;;;18.57;;
15944;SDS011;30172;48.832;8.732;2022-12-18T07:23:02;42.90;;;19.80;;
15944;SDS011;30172;48.832;8.732;2022-12-18T07:25:34;39.87;;;18.67;;
15944;SDS011;30172;48.832;8.732;2022-12-18T07:28:00;35.67;;;17.10;;
15944;SDS011;30172;48.832;8.732;2022-12-18T07:30:25;37.00;;;17.57;;
15944;SDS011;30172;48.832;8.732;2022-12-18T07:32:51;42.73;;;18.00;;
15944;SDS011;30172;48.832;8.732;2022-12-18T07:35:16;38.90;;;17.27;;
15944;SDS011;30172;48.832;8.732;2022-12-18T07:37:41;41.73;;;17.53;;
15944;SDS011;30172;48.832;8.732;2022-12-18T07:40:07;45.03;;;18.70;;
15944;SDS011;30172;48.832;8.732;2022-12-18T07:42:33;39.77;;;18.10;;
15944;SDS011;30172;48.832;8.732;2022-12-18T07:44:59;43.67;;;18.47;;
15944;SDS011;30172;48.832;8.732;2022-12-18T07:47:25;39.60;;;17.37;;
15944;SDS011;30172;48.832;8.732;2022-12-18T07:49:50;39.27;;;18.07;;
15944;SDS011;30172;48.832;8.732;2022-12-18T07:52:15;39.43;;;17.37;;
15944;SDS011;30172;48.832;8.732;2022-12-18T07:54:43;41.77;;;19.33;;
15944;SDS011;30172;48.832;8.732;2022-12-18T07:57:08;40.40;;;19.17;;
15944;SDS011;30172;48.832;8.732;2022-12-18T07:59:33;41.60;;;18.83;;
15944;SDS011;30172;48.832;8.732;2022-12-18T08:01:59;43.40;;;17.53;;
15944;SDS011;30172;48.832;8.732;2022-12-18T08:04:24;41.67;;;18.03;;
15944;SDS011;30172;48.832;8.732;2022-12-18T08:06:50;41.53;;;16.93;;
15944;SDS011;30172;48.832;8.732;2022-12-18T08:09:15;40.27;;;18.30;;
15944;SDS011;30172;48.832;8.732;2022-12-18T08:11:40;40.23;;;17.90;;
15944;SDS011;30172;48.832;8.732;2022-12-18T08:14:06;45.37;;;19.23;;
15944;SDS011;30172;48.832;8.732;2022-12-18T08:16:31;42.07;;;17.53;;
15944;SDS011;30172;48.832;8.732;2022-12-18T08:18:57;41.50;;;17.90;;
15944;SDS011;30172;48.832;8.732;2022-12-18T08:21:26;36.43;;;17.87;;
15944;SDS011;30172;48.832;8.732;2022-12-18T08:23:53;38.47;;;18.80;;
15944;SDS011;30172;48.832;8.732;2022-12-18T08:26:20;40.60;;;19.03;;
15944;SDS011;30172;48.832;8.732;2022-12-18T08:28:45;43.40;;;18.33;;
15944;SDS011;30172;48.832;8.732;2022-12-18T08:31:19;35.03;;;18.30;;
15944;SDS011;30172;48.832;8.732;2022-12-18T08:34:01;43.60;;;19.00;;
15944;SDS011;30172;48.832;8.732;2022-12-18T08:36:26;42.30;;;18.07;;
15944;SDS011;30172;48.832;8.732;2022-12-18T08:38:52;42.00;;;19.10;;
15944;SDS011;30172;48.832;8.732;2022-12-18T08:41:17;45.13;;;19.93;;
15944;SDS011;30172;48.832;8.732;2022-12-18T08:43:43;40.57;;;19.47;;
15944;SDS011;30172;48.832;8.732;2022-12-18T08:46:30;44.50;;;19.60;;
15944;SDS011;30172;48.832;8.732;2022-12-18T08:49:00;40.40;;;19.67;;
15944;SDS011;30172;48.832;8.732;2022-12-18T08:51:29;40.93;;;19.10;;
15944;SDS011;30172;48.832;8.732;2022-12-18T08:53:54;43.77;;;20.13;;
15944;SDS011;30172;48.832;8.732;2022-12-18T08:56:20;42.33;;;19.97;;
15944;SDS011;30172;48.832;8.732;2022-12-18T08:58:45;42.73;;;19.17;;
15944;SDS011;30172;48.832;8.732;2022-12-18T09:01:16;44.67;;;20.43;;
15944;SDS011;30172;48.832;8.732;2022-12-18T09:03:47;42.07;;;20.40;;
15944;SDS011;30172;48.832;8.732;2022-12-18T09:06:14;42.97;;;20.73;;
15944;SDS011;30172;48.832;8.732;2022-12-18T09:08:41;39.57;;;19.43;;
15944;SDS011;30172;48.832;8.732;2022-12-18T09:11:11;42.63;;;19.90;;
15944;SDS011;30172;48.832;8.732;2022-12-18T09:13:39;41.73;;;18.77;;
15944;SDS011;30172;48.832;8.732;2022-12-18T09:16:04;41.33;;;19.47;;
15944;SDS011;30172;48.832;8.732;2022-12-18T09:18:30;44.40;;;20.50;;
15944;SDS011;30172;48.832;8.732;2022-12-18T09:20:55;50.67;;;21.53;;
15944;SDS011;30172;48.832;8.732;2022-12-18T09:23:24;43.80;;;20.33;;
15944;SDS011;30172;48.832;8.732;2022-12-18T09:25:49;45.53;;;21.33;;
15944;SDS011;30172;48.832;8.732;2022-12-18T09:28:17;47.17;;;20.47;;
15944;SDS011;30172;48.832;8.732;2022-12-18T09:30:45;49.17;;;21.80;;
15944;SDS011;30172;48.832;8.732;2022-12-18T09:33:16;43.07;;;20.83;;
15944;SDS011;30172;48.832;8.732;2022-12-18T09:35:42;42.73;;;21.37;;
15944;SDS011;30172;48.832;8.732;2022-12-18T09:38:09;45.13;;;20.57;;
15944;SDS011;30172;48.832;8.732;2022-12-18T09:40:47;46.70;;;20.97;;
15944;SDS011;30172;48.832;8.732;2022-12-18T09:43:18;49.47;;;20.60;;
15944;SDS011;30172;48.832;8.732;2022-12-18T09:45:45;44.50;;;19.93;;
15944;SDS011;30172;48.832;8.732;2022-12-18T09:48:15;43.33;;;20.90;;
15944;SDS011;30172;48.832;8.732;2022-12-18T09:53:45;50.83;;;22.10;;
15944;SDS011;30172;48.832;8.732;2022-12-18T09:56:19;49.27;;;23.30;;
15944;SDS011;30172;48.832;8.732;2022-12-18T09:58:49;51.30;;;21.87;;
15944;SDS011;30172;48.832;8.732;2022-12-18T10:01:20;45.93;;;22.83;;
15944;SDS011;30172;48.832;8.732;2022-12-18T10:03:47;47.97;;;20.47;;
15944;SDS011;30172;48.832;8.732;2022-12-18T10:09:05;45.47;;;20.97;;
15944;SDS011;30172;48.832;8.732;2022-12-18T10:14:23;48.20;;;23.33;;
15944;SDS011;30172;48.832;8.732;2022-12-18T10:17:05;48.17;;;21.77;;
15944;SDS011;30172;48.832;8.732;2022-12-18T10:19:40;47.03;;;21.83;;
15944;SDS011;30172;48.832;8.732;2022-12-18T10:25:02;47.57;;;23.63;;
15944;SDS011;30172;48.832;8.732;2022-12-18T10:27:31;50.93;;;23.33;;
15944;SDS011;30172;48.832;8.732;2022-12-18T10:29:56;49.10;;;22.67;;
15944;SDS011;30172;48.832;8.732;2022-12-18T10:32:23;42.93;;;22.83;;
15944;SDS011;30172;48.832;8.732;2022-12-18T10:34:51;50.27;;;23.60;;
15944;SDS011;30172;48.832;8.732;2022-12-18T10:37:19;49.90;;;23.03;;
15944;SDS011;30172;48.832;8.732;2022-12-18T10:40:06;58.80;;;24.07;;
15944;SDS011;30172;48.832;8.732;2022-12-18T10:42:37;48.63;;;23.60;;
15944;SDS011;30172;48.832;8.732;2022-12-18T10:45:11;48.67;;;23.87;;
15944;SDS011;30172;48.832;8.732;2022-12-18T10:47:50;50.03;;;22.97;;
15944;SDS011;30172;48.832;8.732;2022-12-18T10:50:19;50.40;;;23.13;;
15944;SDS011;30172;48.832;8.732;2022-12-18T10:52:57;47.87;;;23.53;;
15944;SDS011;30172;48.832;8.732;2022-12-18T10:55:25;47.33;;;22.80;;
15944;SDS011;30172;48.832;8.732;2022-12-18T10:58:12;47.23;;;23.10;;
15944;SDS011;30172;48.832;8.732;2022-12-18T11:03:36;46.87;;;22.67;;
15944;SDS011;30172;48.832;8.732;2022-12-18T11:06:03;50.27;;;23.80;;
15944;SDS011;30172;48.832;8.732;2022-12-18T11:08:38;45.63;;;22.03;;
15944;SDS011;30172;48.832;8.732;2022-12-18T11:11:06;46.73;;;23.30;;
15944;SDS011;30172;48.832;8.732;2022-12-18T11:13:39;50.23;;;24.47;;
15944;SDS011;30172;48.832;8.732;2022-12-18T11:16:05;53.30;;;24.53;;
15944;SDS011;30172;48.832;8.732;2022-12-18T11:18:34;52.50;;;23.80;;
15944;SDS011;30172;48.832;8.732;2022-12-18T11:23:28;48.97;;;23.87;;
15944;SDS011;30172;48.832;8.732;2022-12-18T11:25:54;49.00;;;24.63;;
15944;SDS011;30172;48.832;8.732;2022-12-18T11:28:29;50.07;;;23.80;;
15944;SDS011;30172;48.832;8.732;2022-12-18T11:31:17;51.93;;;24.57;;
15944;SDS011;30172;48.832;8.732;2022-12-18T11:33:44;55.63;;;24.67;;
15944;SDS011;30172;48.832;8.732;2022-12-18T11:36:12;51.80;;;24.83;;
15944;SDS011;30172;48.832;8.732;2022-12-18T11:38:39;50.87;;;24.13;;
15944;SDS011;30172;48.832;8.732;2022-12-18T11:41:18;50.27;;;24.83;;
15944;SDS011;30172;48.832;8.732;2022-12-18T11:44:08;49.23;;;23.70;;
15944;SDS011;30172;48.832;8.732;2022-12-18T11:46:51;53.80;;;24.60;;
15944;SDS011;30172;48.832;8.732;2022-12-18T11:49:33;51.33;;;23.87;;
15944;SDS011;30172;48.832;8.732;2022-12-18T11:54:50;52.50;;;25.37;;
15944;SDS011;30172;48.832;8.732;2022-12-18T12:08:22;52.53;;;25.23;;
15944;SDS011;30172;48.832;8.732;2022-12-18T12:19:12;55.80;;;23.80;;
15944;SDS011;30172;48.832;8.732;2022-12-18T12:21:51;49.97;;;24.97;;
15944;SDS011;30172;48.832;8.732;2022-12-18T12:24:27;50.00;;;27.30;;
15944;SDS011;30172;48.832;8.732;2022-12-18T12:27:25;47.77;;;24.63;;
15944;SDS011;30172;48.832;8.732;2022-12-18T12:30:18;52.17;;;25.20;;
15944;SDS011;30172;48.832;8.732;2022-12-18T12:35:32;51.77;;;24.27;;
15944;SDS011;30172;48.832;8.732;2022-12-18T12:38:11;50.27;;;24.50;;
15944;SDS011;30172;48.832;8.732;2022-12-18T12:40:46;50.37;;;24.63;;
15944;SDS011;30172;48.832;8.732;2022-12-18T12:46:10;55.43;;;27.53;;
15944;SDS011;30172;48.832;8.732;2022-12-18T12:48:41;51.63;;;26.33;;
15944;SDS011;30172;48.832;8.732;2022-12-18T12:53:49;53.33;;;26.00;;
15944;SDS011;30172;48.832;8.732;2022-12-18T12:56:15;49.73;;;27.03;;
15944;SDS011;30172;48.832;8.732;2022-12-18T12:58:54;49.80;;;26.00;;
15944;SDS011;30172;48.832;8.732;2022-12-18T13:04:36;50.17;;;25.13;;
15944;SDS011;30172;48.832;8.732;2022-12-18T13:07:23;55.60;;;26.03;;
15944;SDS011;30172;48.832;8.732;2022-12-18T13:12:51;47.67;;;23.93;;
15944;SDS011;30172;48.832;8.732;2022-12-18T13:20:40;51.30;;;25.63;;
15944;SDS011;30172;48.832;8.732;2022-12-18T13:25:53;54.53;;;26.10;;
15944;SDS011;30172;48.832;8.732;2022-12-18T13:28:48;55.50;;;26.80;;
15944;SDS011;30172;48.832;8.732;2022-12-18T13:31:11;52.73;;;25.80;;
15944;SDS011;30172;48.832;8.732;2022-12-18T13:33:44;49.63;;;24.93;;
15944;SDS011;30172;48.832;8.732;2022-12-18T13:38:39;56.60;;;26.80;;
15944;SDS011;30172;48.832;8.732;2022-12-18T13:43:40;59.77;;;28.87;;
15944;SDS011;30172;48.832;8.732;2022-12-18T13:46:21;54.90;;;28.30;;
15944;SDS011;30172;48.832;8.732;2022-12-18T13:51:26;58.37;;;28.57;;
15944;SDS011;30172;48.832;8.732;2022-12-18T13:56:30;63.07;;;27.53;;
15944;SDS011;30172;48.832;8.732;2022-12-18T13:59:06;59.80;;;26.97;;
15944;SDS011;30172;48.832;8.732;2022-12-18T14:02:12;53.10;;;26.00;;
15944;SDS011;30172;48.832;8.732;2022-12-18T14:04:34;57.40;;;26.70;;
15944;SDS011;30172;48.832;8.732;2022-12-18T14:07:01;56.30;;;26.20;;
15944;SDS011;30172;48.832;8.732;2022-12-18T14:09:29;57.80;;;28.73;;
15944;SDS011;30172;48.832;8.732;2022-12-18T14:11:56;60.43;;;27.00;;
15944;SDS011;30172;48.832;8.732;2022-12-18T14:14:42;58.97;;;27.07;;
15944;SDS011;30172;48.832;8.732;2022-12-18T14:17:10;53.53;;;26.83;;
15944;SDS011;30172;48.832;8.732;2022-12-18T14:19:43;54.50;;;26.07;;
15944;SDS011;30172;48.832;8.732;2022-12-18T14:22:17;60.83;;;27.10;;
15944;SDS011;30172;48.832;8.732;2022-12-18T14:24:44;58.57;;;26.30;;
15944;SDS011;30172;48.832;8.732;2022-12-18T14:27:19;56.97;;;28.43;;
15944;SDS011;30172;48.832;8.732;2022-12-18T14:29:49;56.57;;;27.17;;
15944;SDS011;30172;48.832;8.732;2022-12-18T14:32:18;65.50;;;28.17;;
15944;SDS011;30172;48.832;8.732;2022-12-18T14:34:49;60.90;;;28.27;;
15944;SDS011;30172;48.832;8.732;2022-12-18T14:37:22;58.80;;;26.93;;
15944;SDS011;30172;48.832;8.732;2022-12-18T14:39:56;56.10;;;26.73;;
15944;SDS011;30172;48.832;8.732;2022-12-18T14:42:31;58.90;;;26.80;;
15944;SDS011;30172;48.832;8.732;2022-12-18T14:45:32;58.67;;;28.20;;
15944;SDS011;30172;48.832;8.732;2022-12-18T14:48:09;64.70;;;28.60;;
15944;SDS011;30172;48.832;8.732;2022-12-18T14:50:39;60.27;;;30.03;;
15944;SDS011;30172;48.832;8.732;2022-12-18T14:53:21;65.43;;;28.13;;
15944;SDS011;30172;48.832;8.732;2022-12-18T14:55:48;58.27;;;26.17;;
15944;SDS011;30172;48.832;8.732;2022-12-18T14:58:15;58.70;;;28.60;;
15944;SDS011;30172;48.832;8.732;2022-12-18T15:00:42;64.97;;;28.67;;
15944;SDS011;30172;48.832;8.732;2022-12-18T15:03:08;66.57;;;30.40;;
15944;SDS011;30172;48.832;8.732;2022-12-18T15:05:34;60.17;;;29.07;;
15944;SDS011;30172;48.832;8.732;2022-12-18T15:08:00;63.40;;;30.33;;
15944;SDS011;30172;48.832;8.732;2022-12-18T15:10:26;61.63;;;28.60;;
15944;SDS011;30172;48.832;8.732;2022-12-18T15:18:03;70.10;;;32.23;;
15944;SDS011;30172;48.832;8.732;2022-12-18T15:20:45;69.17;;;31.67;;
15944;SDS011;30172;48.832;8.732;2022-12-18T15:23:16;67.00;;;33.70;;
15944;SDS011;30172;48.832;8.732;2022-12-18T15:25:43;70.77;;;32.17;;
15944;SDS011;30172;48.832;8.732;2022-12-18T15:28:16;75.87;;;35.27;;
15944;SDS011;30172;48.832;8.732;2022-12-18T15:31:45;80.67;;;37.73;;
15944;SDS011;30172;48.832;8.732;2022-12-18T15:33:39;74.33;;;35.67;;
15944;SDS011;30172;48.832;8.732;2022-12-18T15:36:13;69.63;;;33.07;;
15944;SDS011;30172;48.832;8.732;2022-12-18T15:38:40;67.47;;;32.03;;
15944;SDS011;30172;48.832;8.732;2022-12-18T15:41:05;67.37;;;31.87;;
15944;SDS011;30172;48.832;8.732;2022-12-18T15:43:30;71.23;;;31.47;;
15944;SDS011;30172;48.832;8.732;2022-12-18T15:45:59;69.70;;;31.80;;
15944;SDS011;30172;48.832;8.732;2022-12-18T15:48:34;66.03;;;30.63;;
15944;SDS011;30172;48.832;8.732;2022-12-18T15:51:01;73.50;;;30.60;;
15944;SDS011;30172;48.832;8.732;2022-12-18T15:53:30;73.50;;;32.23;;
15944;SDS011;30172;48.832;8.732;2022-12-18T15:55:57;71.40;;;32.77;;
15944;SDS011;30172;48.832;8.732;2022-12-18T15:58:42;78.37;;;35.57;;
15944;SDS011;30172;48.832;8.732;2022-12-18T16:01:07;80.53;;;47.50;;
15944;SDS011;30172;48.832;8.732;2022-12-18T16:03:34;76.40;;;37.40;;
15944;SDS011;30172;48.832;8.732;2022-12-18T16:05:59;84.47;;;46.00;;